Ana Sayfa
METAR-TAF:

METAR-TAF

Havaalanları :

Hutchinson County Airport

Borger, Teksas, Amerika Birleşik Devletleri

Enlem: 35-41-42N, Boylam: 101-23-42W, yükseklik: 931 m

Güncel hava durumu gözlemi

Rapor saat 12:51 UTC de 30 dakika önce yapıldı.
Rüzgar güneybatıdan 8 kt
Sıcaklık 4°C
Nem 87%
Basınç 1014 hPa
Görüş mesafesi: 8.0 km
500 ft yükseklikte çok bulutlu
Toz Pusu

METAR: KBGD 231251Z AUTO 22008KT 5SM HZ OVC005 04/02 A2993 RMK AO2 SLP137 T00440017

Saat: 07:21 (13:21 UTC)


TAF: eksik

4.000'den fazla havaalanı için hava durumu gözlemleri ve tahminleri (METAR ve TAF raporları).

Kullanılabilir istasyonlar harita üzerinde sarı ve kırmızı noktalarla gösterilir.

İstasyonun adını görmek için fareyi noktanın üzerinde gezdirin.

Sonrasında hava gözlem ve tahminlerini görmek için tıklayın.

Haritayı değiştirmek için: yaklaştırmak için siyah artı işaretli yeşil düğmeye ve uzaklaştırmak için de eksi işaretli düğmeye hızla tıklayın; bitişik haritalar için yeşil okları kullanın.


METAR-TAF: